createdAt,value
2022-07-27T00:02:32.610Z,24.17
2022-07-27T00:07:37.461Z,22.38
2022-07-27T00:12:41.829Z,22.25
2022-07-27T00:17:45.189Z,20.50
2022-07-27T00:22:49.956Z,20.98
2022-07-27T00:27:53.397Z,20.23
2022-07-27T00:32:57.136Z,20.75
2022-07-27T00:38:01.803Z,21.08
2022-07-27T00:43:05.215Z,19.60
2022-07-27T00:48:08.638Z,53.03
2022-07-27T00:53:14.272Z,36.92
2022-07-27T00:58:18.360Z,25.17
2022-07-27T01:03:23.255Z,20.45
2022-07-27T01:08:34.883Z,19.35
2022-07-27T01:13:38.511Z,20.25
2022-07-27T01:18:43.376Z,21.05
2022-07-27T01:23:48.102Z,19.23
2022-07-27T01:28:51.412Z,20.58
2022-07-27T01:33:54.751Z,19.10
2022-07-27T01:38:59.457Z,22.15
2022-07-27T01:44:02.751Z,21.48
2022-07-27T01:49:06.562Z,22.75
2022-07-27T01:54:11.325Z,22.50
2022-07-27T01:59:14.836Z,22.75
2022-07-27T02:04:20.608Z,22.58
2022-07-27T02:09:25.975Z,22.67
2022-07-27T02:14:29.287Z,22.63
2022-07-27T02:19:32.693Z,22.15
2022-07-27T02:24:37.957Z,22.98
2022-07-27T02:29:41.304Z,22.17
2022-07-27T02:34:45.109Z,21.80
2022-07-27T02:39:49.856Z,21.42
2022-07-27T02:44:53.364Z,22.88
2022-07-27T02:49:56.959Z,23.35
2022-07-27T02:55:01.835Z,24.75
2022-07-27T03:00:07.012Z,25.85
2022-07-27T03:05:12.710Z,25.10
2022-07-27T03:16:05.581Z,26.13
2022-07-27T03:21:09.068Z,25.38
2022-07-27T03:26:13.998Z,24.80
2022-07-27T03:31:17.437Z,27.00
2022-07-27T03:36:21.617Z,24.98
2022-07-27T03:41:26.260Z,25.08
2022-07-27T03:46:29.720Z,22.65
2022-07-27T03:51:33.114Z,21.98
2022-07-27T03:56:37.852Z,19.42
2022-07-27T04:01:41.222Z,20.67
2022-07-27T04:06:44.611Z,19.52
2022-07-27T04:11:50.945Z,20.20
2022-07-27T04:16:55.113Z,18.17
2022-07-27T04:21:58.571Z,18.30
2022-07-27T04:27:03.540Z,16.27
2022-07-27T04:32:07.834Z,18.80
2022-07-27T04:37:11.311Z,18.45
2022-07-27T04:42:16.026Z,14.45
2022-07-27T04:47:20.192Z,13.32
2022-07-27T04:52:27.025Z,13.05
2022-07-27T04:57:33.717Z,11.02
2022-07-27T05:02:40.954Z,10.00
2022-07-27T05:07:44.298Z,9.43
2022-07-27T05:12:49.571Z,9.65
2022-07-27T05:17:53.686Z,8.48
2022-07-27T05:22:57.613Z,8.30
2022-07-27T05:28:03.046Z,7.75
2022-07-27T05:33:06.582Z,21.50
2022-07-27T05:38:10.335Z,22.77
2022-07-27T05:43:15.137Z,19.98
2022-07-27T05:48:18.597Z,29.20
2022-07-27T05:53:22.015Z,21.77
2022-07-27T05:58:26.735Z,12.15
2022-07-27T06:03:30.276Z,10.20
2022-07-27T06:08:33.962Z,16.88
2022-07-27T06:13:42.486Z,17.73
2022-07-27T06:18:46.145Z,7.67
2022-07-27T06:23:49.472Z,6.65
2022-07-27T06:28:58.797Z,6.10
2022-07-27T06:34:02.296Z,5.20
2022-07-27T06:39:06.432Z,5.47
2022-07-27T06:44:11.088Z,6.40
2022-07-27T06:49:14.970Z,6.32
2022-07-27T06:54:18.530Z,6.38
2022-07-27T06:59:23.252Z,5.75
2022-07-27T07:04:26.687Z,6.22
2022-07-27T07:09:30.568Z,5.63
2022-07-27T07:14:35.304Z,5.47
2022-07-27T07:19:38.636Z,5.60
2022-07-27T07:24:42.254Z,6.07
2022-07-27T07:29:47.157Z,5.22
2022-07-27T07:34:50.847Z,5.43
2022-07-27T07:39:54.173Z,6.28
2022-07-27T07:44:58.942Z,7.68
2022-07-27T07:50:02.396Z,6.75
2022-07-27T07:55:06.563Z,7.63
2022-07-27T08:00:12.669Z,8.05
2022-07-27T08:05:16.578Z,7.40
2022-07-27T08:10:22.687Z,14.25
2022-07-27T08:15:34.968Z,11.82
2022-07-27T08:20:39.539Z,22.50
2022-07-27T08:25:42.914Z,21.95
2022-07-27T08:30:48.280Z,25.45
2022-07-27T08:35:53.016Z,21.67
2022-07-27T08:40:56.710Z,19.73
2022-07-27T08:46:01.987Z,18.08
2022-07-27T08:51:05.592Z,19.02
2022-07-27T08:56:10.148Z,18.58
2022-07-27T09:01:16.100Z,17.55
2022-07-27T09:06:44.096Z,17.83
2022-07-27T09:12:06.389Z,15.90
2022-07-27T09:17:49.455Z,15.35
2022-07-27T09:22:55.541Z,14.27
2022-07-27T09:28:00.935Z,14.98
2022-07-27T09:33:07.940Z,16.38
2022-07-27T09:38:19.189Z,15.52
2022-07-27T09:48:47.726Z,15.40
2022-07-27T09:53:51.279Z,13.98
2022-07-27T09:58:56.861Z,12.32
2022-07-27T10:04:03.673Z,12.30
2022-07-27T10:09:07.180Z,11.75
2022-07-27T10:14:10.819Z,11.88
2022-07-27T10:19:21.156Z,11.95
2022-07-27T10:24:28.989Z,9.68
2022-07-27T10:29:33.209Z,8.68
2022-07-27T10:34:40.744Z,7.38
2022-07-27T10:39:46.171Z,7.28
2022-07-27T10:45:05.057Z,7.57
2022-07-27T10:50:29.919Z,8.30
2022-07-27T10:55:46.877Z,8.32
2022-07-27T11:01:00.066Z,7.70
2022-07-27T11:06:31.344Z,6.45
2022-07-27T11:11:34.517Z,6.22
2022-07-27T11:16:54.691Z,6.05
2022-07-27T11:22:04.553Z,6.32
2022-07-27T11:27:16.350Z,5.47
2022-07-27T11:32:22.200Z,8.35
2022-07-27T11:37:26.855Z,7.70
2022-07-27T11:42:39.205Z,8.43
2022-07-27T11:47:42.679Z,9.20
2022-07-27T11:53:01.261Z,8.57
2022-07-27T12:03:08.998Z,7.22
2022-07-27T12:08:14.444Z,7.82
2022-07-27T12:13:19.730Z,5.40
2022-07-27T12:18:23.170Z,5.20
2022-07-27T12:23:31.229Z,4.47
2022-07-27T12:28:34.592Z,5.13
2022-07-27T12:33:39.004Z,5.28
2022-07-27T12:38:45.400Z,4.35
2022-07-27T12:44:05.316Z,4.57
2022-07-27T12:49:17.200Z,4.65
2022-07-27T12:54:22.378Z,3.80
2022-07-27T12:59:25.714Z,3.30
2022-07-27T13:04:29.080Z,3.90
2022-07-27T13:10:01.720Z,3.35
2022-07-27T13:14:59.125Z,4.05
2022-07-27T13:20:02.607Z,3.67
2022-07-27T13:25:16.085Z,3.60
2022-07-27T13:30:21.419Z,4.43
2022-07-27T13:35:24.820Z,4.03
2022-07-27T13:40:29.610Z,4.40
2022-07-27T13:45:42.797Z,3.42
2022-07-27T13:50:47.005Z,3.65
2022-07-27T13:55:51.745Z,3.03
2022-07-27T14:00:55.824Z,2.40
2022-07-27T14:05:59.242Z,2.78
2022-07-27T14:11:04.362Z,3.22
2022-07-27T14:16:08.453Z,3.17
2022-07-27T14:21:12.077Z,2.20
2022-07-27T14:26:16.930Z,1.80
2022-07-27T14:31:22.164Z,2.30
2022-07-27T14:36:25.615Z,1.80
2022-07-27T14:41:31.441Z,2.00
2022-07-27T14:46:34.908Z,1.70
2022-07-27T14:51:38.312Z,2.92
2022-07-27T14:56:43.083Z,2.10
2022-07-27T15:01:46.648Z,1.50
2022-07-27T15:06:50.202Z,1.40
2022-07-27T15:11:55.054Z,1.73
2022-07-27T15:16:58.491Z,1.80
2022-07-27T15:22:01.975Z,1.40
2022-07-27T15:27:07.046Z,1.48
2022-07-27T15:32:10.596Z,1.50
2022-07-27T15:37:14.808Z,1.88
2022-07-27T15:42:19.555Z,1.58
2022-07-27T15:47:22.901Z,1.75
2022-07-27T15:52:26.223Z,1.60
2022-07-27T15:57:30.960Z,1.30
2022-07-27T16:02:34.359Z,1.77
2022-07-27T16:07:41.399Z,1.90
2022-07-27T16:12:46.473Z,1.60
2022-07-27T16:17:49.939Z,1.70
2022-07-27T16:22:53.253Z,1.58
2022-07-27T16:27:57.948Z,1.50
2022-07-27T16:33:03.438Z,1.75
2022-07-27T16:38:06.934Z,1.65
2022-07-27T16:43:11.663Z,1.63
2022-07-27T16:48:14.999Z,1.73
2022-07-27T16:53:18.359Z,1.90
2022-07-27T16:58:23.021Z,2.22
2022-07-27T17:03:27.088Z,1.63
2022-07-27T17:08:30.568Z,2.05
2022-07-27T17:13:37.100Z,2.55
2022-07-27T17:18:40.771Z,2.00
2022-07-27T17:23:45.110Z,2.08
2022-07-27T17:28:49.943Z,2.28
2022-07-27T17:33:54.150Z,2.70
2022-07-27T17:38:58.058Z,2.20
2022-07-27T17:44:02.867Z,2.15
2022-07-27T17:49:06.229Z,2.10
2022-07-27T17:54:09.711Z,2.60
2022-07-27T17:59:36.470Z,2.45
2022-07-27T18:04:39.575Z,2.55
2022-07-27T18:09:43.535Z,2.70
2022-07-27T18:15:03.023Z,2.30
2022-07-27T18:25:11.686Z,2.38
2022-07-27T18:30:16.941Z,2.78
2022-07-27T18:35:20.481Z,2.38
2022-07-27T18:40:24.020Z,2.20
2022-07-27T18:45:34.201Z,2.33
2022-07-27T18:50:39.860Z,2.53
2022-07-27T18:55:44.957Z,2.97
2022-07-27T19:00:49.688Z,3.05
2022-07-27T19:05:54.458Z,2.90
2022-07-27T19:10:58.142Z,2.85
2022-07-27T19:16:02.854Z,7.28
2022-07-27T19:21:06.220Z,3.55
2022-07-27T19:26:10.294Z,3.58
2022-07-27T19:31:22.851Z,3.03
2022-07-27T19:36:27.749Z,3.50
2022-07-27T19:41:31.260Z,3.35
2022-07-27T19:46:36.190Z,4.45
2022-07-27T19:51:39.896Z,3.88
2022-07-27T19:56:43.260Z,3.75
2022-07-27T20:01:48.221Z,4.45
2022-07-27T20:06:51.652Z,3.97
2022-07-27T20:12:00.107Z,3.58
2022-07-27T20:17:06.189Z,3.53
2022-07-27T20:22:09.738Z,4.20
2022-07-27T20:27:13.745Z,3.00
2022-07-27T20:32:18.420Z,3.63
2022-07-27T20:37:21.835Z,3.25
2022-07-27T20:42:25.499Z,3.80
2022-07-27T20:47:34.565Z,4.10
2022-07-27T20:52:38.457Z,4.30
2022-07-27T20:57:42.026Z,3.15
2022-07-27T21:02:46.979Z,2.90
2022-07-27T21:07:50.425Z,2.80
2022-07-27T21:12:53.767Z,2.70
2022-07-27T21:17:58.511Z,2.20
2022-07-27T21:23:19.555Z,2.17
2022-07-27T21:28:24.756Z,2.60
2022-07-27T21:33:30.189Z,2.70
2022-07-27T21:38:33.591Z,2.78
2022-07-27T21:43:36.892Z,2.85
2022-07-27T21:48:42.035Z,2.47
2022-07-27T21:53:45.902Z,2.53
2022-07-27T21:58:49.438Z,2.00
2022-07-27T22:03:54.227Z,2.53
2022-07-27T22:08:57.585Z,2.47
2022-07-27T22:14:00.993Z,4.50
2022-07-27T22:19:06.018Z,5.82
2022-07-27T22:24:09.562Z,5.35
2022-07-27T22:29:13.230Z,3.92
2022-07-27T22:34:18.108Z,3.28
2022-07-27T22:39:21.502Z,3.28
2022-07-27T22:44:25.065Z,3.50
2022-07-27T22:49:30.083Z,2.67
2022-07-27T22:54:33.944Z,2.33
2022-07-27T22:59:38.271Z,2.67
2022-07-27T23:04:43.015Z,2.92
2022-07-27T23:09:46.312Z,2.45
2022-07-27T23:14:50.330Z,2.15
2022-07-27T23:19:55.045Z,2.45
2022-07-27T23:24:58.329Z,2.47
2022-07-27T23:30:01.615Z,2.20
2022-07-27T23:35:07.310Z,2.42
2022-07-27T23:40:12.066Z,3.20
2022-07-27T23:45:15.397Z,3.15
2022-07-27T23:50:20.197Z,2.67
2022-07-27T23:55:23.544Z,2.53
